Time;durP1;ratioP1;P1;durP2;ratioP2;P2;SDS_P1;SDS_P2;PMS_P1;PMS_P2;Temp;Humidity;BMP_temperature;BMP_pressure;BME280_temperature;BME280_humidity;BME280_pressure;Samples;Min_cycle;Max_cycle;Signal;HPM_P1;HPM_P2
2023/04/20 00:00:50;;;;;;;10.70;4.37;;;11.10;46.00;;;;;;5093306;28;20964;-83
2023/04/20 00:03:20;;;;;;;7.90;4.73;;;11.30;46.30;;;;;;5093055;28;20473;-82
2023/04/20 00:05:48;;;;;;;8.50;4.57;;;11.50;46.20;;;;;;5093435;27;20949;-83
2023/04/20 00:08:16;;;;;;;7.30;4.57;;;11.60;46.10;;;;;;5088689;28;20469;-84
2023/04/20 00:10:43;;;;;;;10.30;4.90;;;11.60;46.50;;;;;;5092916;28;20452;-85
2023/04/20 00:13:12;;;;;;;9.23;4.50;;;11.60;46.50;;;;;;5074366;28;20475;-84
2023/04/20 00:15:39;;;;;;;14.60;5.53;;;11.70;46.50;;;;;;5073692;28;20475;-83
2023/04/20 00:18:06;;;;;;;6.37;5.20;;;11.70;46.60;;;;;;5074570;28;20874;-81
2023/04/20 00:20:34;;;;;;;7.80;4.63;;;11.60;46.30;;;;;;5093723;27;20497;-82
2023/04/20 00:23:01;;;;;;;7.70;4.90;;;11.60;46.40;;;;;;5092447;27;20507;-83
2023/04/20 00:25:29;;;;;;;5.80;4.30;;;11.50;46.20;;;;;;5084052;28;23074;-83
2023/04/20 00:27:56;;;;;;;7.63;4.90;;;11.40;46.70;;;;;;5072967;28;20521;-82
2023/04/20 00:30:25;;;;;;;6.23;5.10;;;11.40;46.70;;;;;;5058700;28;20455;-83
2023/04/20 00:32:52;;;;;;;8.70;4.80;;;11.50;46.70;;;;;;5091485;27;20482;-85
2023/04/20 00:35:19;;;;;;;9.10;4.90;;;11.40;46.50;;;;;;5067415;28;20458;-83
2023/04/20 00:37:46;;;;;;;10.53;5.37;;;11.40;46.60;;;;;;5093022;27;20545;-82
2023/04/20 00:40:13;;;;;;;6.03;5.43;;;11.40;46.60;;;;;;5080583;28;21011;-82
2023/04/20 00:42:41;;;;;;;4.87;4.37;;;11.30;46.50;;;;;;5093079;27;20500;-84
2023/04/20 00:45:09;;;;;;;8.47;4.87;;;11.30;45.70;;;;;;5107492;27;20480;-82
2023/04/20 00:47:38;;;;;;;5.80;4.47;;;11.10;45.30;;;;;;5082384;28;20444;-83
2023/04/20 00:50:07;;;;;;;11.90;4.90;;;11.00;45.60;;;;;;5093267;27;20937;-83
2023/04/20 00:52:34;;;;;;;6.80;4.80;;;10.90;45.90;;;;;;5084479;28;20463;-84
2023/04/20 00:55:03;;;;;;;5.47;4.47;;;10.90;45.60;;;;;;5057318;28;20530;-83
2023/04/20 00:57:30;;;;;;;6.27;4.70;;;10.90;45.50;;;;;;5090258;28;20446;-85
2023/04/20 00:59:57;;;;;;;7.93;5.07;;;10.80;45.20;;;;;;5077986;28;20490;-83
2023/04/20 01:02:26;;;;;;;7.80;5.10;;;10.80;45.60;;;;;;5105470;27;20950;-84
2023/04/20 01:04:55;;;;;;;8.27;4.43;;;10.90;45.50;;;;;;5075877;28;20448;-81
2023/04/20 01:07:22;;;;;;;9.60;4.93;;;10.90;45.40;;;;;;5062601;28;20431;-82
2023/04/20 01:09:50;;;;;;;4.20;3.80;;;10.50;46.10;;;;;;5057443;28;21004;-83
2023/04/20 01:12:17;;;;;;;8.83;4.27;;;10.00;47.20;;;;;;5090013;28;20749;-82
2023/04/20 01:14:44;;;;;;;5.77;4.40;;;9.70;48.70;;;;;;5087988;28;20913;-86
2023/04/20 01:17:13;;;;;;;4.77;4.20;;;9.40;49.60;;;;;;5088770;28;20465;-85
2023/04/20 01:19:45;;;;;;;6.27;4.50;;;9.60;50.20;;;;;;5072017;28;20455;-83
2023/04/20 01:22:17;;;;;;;5.23;4.73;;;9.70;49.60;;;;;;5089725;28;20474;-83
2023/04/20 01:24:45;;;;;;;6.20;4.60;;;9.70;49.90;;;;;;5091970;28;20439;-83
2023/04/20 01:27:12;;;;;;;7.50;5.20;;;9.50;50.20;;;;;;5060197;28;20955;-84
2023/04/20 01:29:40;;;;;;;6.43;4.90;;;9.50;50.10;;;;;;5107172;27;20467;-83
2023/04/20 01:32:09;;;;;;;7.10;4.77;;;9.60;50.40;;;;;;5083682;28;20484;-84
2023/04/20 01:34:37;;;;;;;9.13;4.60;;;9.90;50.60;;;;;;5074592;28;20450;-83
2023/04/20 01:37:06;;;;;;;7.80;4.57;;;10.20;49.00;;;;;;5091564;27;20455;-86
2023/04/20 01:39:35;;;;;;;5.20;4.30;;;10.40;49.00;;;;;;5089838;27;20443;-86
2023/04/20 01:42:02;;;;;;;4.53;4.10;;;10.60;48.90;;;;;;5091553;28;20534;-86
2023/04/20 01:44:30;;;;;;;7.50;4.90;;;10.70;48.50;;;;;;5092322;28;20504;-83
2023/04/20 01:46:57;;;;;;;5.43;4.10;;;10.80;48.20;;;;;;5109030;27;20446;-85
2023/04/20 01:49:24;;;;;;;4.37;3.97;;;10.90;47.50;;;;;;5058201;27;20545;-84
2023/04/20 01:51:52;;;;;;;4.93;4.47;;;10.90;47.50;;;;;;5089874;28;20443;-84
2023/04/20 01:54:19;;;;;;;8.70;4.77;;;10.80;47.40;;;;;;5072250;28;20563;-85
2023/04/20 01:56:47;;;;;;;6.13;4.70;;;10.70;47.60;;;;;;5073881;28;20443;-82
2023/04/20 01:59:15;;;;;;;6.70;5.00;;;10.50;49.70;;;;;;5045237;28;20454;-82
2023/04/20 02:01:42;;;;;;;8.03;4.90;;;10.70;50.30;;;;;;5106663;27;20960;-84
2023/04/20 02:04:10;;;;;;;8.00;5.67;;;10.90;50.30;;;;;;5066372;28;20466;-85
2023/04/20 02:06:37;;;;;;;8.83;4.83;;;11.00;50.20;;;;;;5086711;27;20804;-83
2023/04/20 02:09:04;;;;;;;6.70;5.07;;;11.00;50.00;;;;;;5047186;28;20973;-82
2023/04/20 02:11:31;;;;;;;6.97;5.10;;;11.10;49.90;;;;;;5092170;28;20471;-84
2023/04/20 02:13:59;;;;;;;5.23;4.73;;;11.00;49.90;;;;;;5064012;28;20566;-84
2023/04/20 02:16:28;;;;;;;8.90;5.07;;;10.70;50.50;;;;;;5070140;28;20988;-83
2023/04/20 02:18:55;;;;;;;5.97;4.63;;;10.90;50.50;;;;;;5089621;28;20848;-83
2023/04/20 02:21:22;;;;;;;7.00;4.67;;;11.00;50.50;;;;;;5070261;28;20547;-84
2023/04/20 02:23:49;;;;;;;6.10;4.60;;;11.00;50.20;;;;;;5091048;28;20918;-87
2023/04/20 02:26:16;;;;;;;9.37;4.50;;;10.90;50.30;;;;;;5089887;28;20447;-82
2023/04/20 02:28:43;;;;;;;6.03;4.80;;;10.70;51.10;;;;;;5092671;27;20460;-86
2023/04/20 02:31:12;;;;;;;7.10;5.43;;;10.80;51.00;;;;;;5070934;28;20454;-85
2023/04/20 02:33:39;;;;;;;7.23;4.80;;;10.90;50.90;;;;;;5080829;28;20520;-84
2023/04/20 02:36:06;;;;;;;7.93;5.50;;;10.90;50.60;;;;;;5103867;27;20489;-83
2023/04/20 02:38:33;;;;;;;6.33;5.73;;;11.00;50.50;;;;;;5073424;28;20467;-82
2023/04/20 02:41:01;;;;;;;7.27;4.87;;;11.10;50.20;;;;;;5066027;28;20824;-85
2023/04/20 02:43:28;;;;;;;6.13;5.30;;;11.10;50.10;;;;;;5062106;28;20474;-84
2023/04/20 02:45:55;;;;;;;6.70;5.40;;;11.10;49.80;;;;;;5075559;28;20539;-83
2023/04/20 02:48:24;;;;;;;7.03;5.20;;;11.00;49.50;;;;;;5063778;28;20578;-83
2023/04/20 02:50:55;;;;;;;8.80;5.17;;;10.70;49.60;;;;;;5083152;28;20979;-81
2023/04/20 02:53:23;;;;;;;9.70;5.30;;;10.50;51.00;;;;;;5071328;28;20571;-85
2023/04/20 02:55:58;;;;;;;7.33;5.30;;;10.50;50.30;;;;;;5080490;28;20447;-87
2023/04/20 02:58:40;;;;;;;6.47;5.13;;;10.60;50.80;;;;;;5080677;28;20459;-85
2023/04/20 03:01:19;;;;;;;9.90;5.90;;;10.70;50.80;;;;;;5073146;28;20459;-86
2023/04/20 03:03:49;;;;;;;6.80;5.17;;;10.80;50.70;;;;;;5069772;28;20475;-82
2023/04/20 03:06:16;;;;;;;7.27;5.47;;;10.90;50.60;;;;;;5102532;27;21211;-83
2023/04/20 03:08:49;;;;;;;8.90;5.63;;;11.00;50.50;;;;;;5077601;28;20474;-82
2023/04/20 03:11:49;;;;;;;7.90;4.93;;;11.00;50.50;;;;;;5077643;28;20875;-81
2023/04/20 03:14:30;;;;;;;7.97;4.63;;;11.00;50.60;;;;;;5080972;28;20479;-83
2023/04/20 03:16:58;;;;;;;5.90;4.83;;;11.00;50.70;;;;;;5063638;28;20459;-84
2023/04/20 03:19:26;;;;;;;7.07;5.30;;;11.10;51.00;;;;;;5105285;27;20443;-82
2023/04/20 03:21:53;;;;;;;8.20;5.80;;;11.10;50.90;;;;;;5037239;28;20475;-86
2023/04/20 03:24:21;;;;;;;8.13;4.27;;;11.10;50.80;;;;;;5085416;28;20477;-82
2023/04/20 03:26:48;;;;;;;7.03;5.17;;;11.10;50.20;;;;;;5064030;28;20435;-82
2023/04/20 03:29:18;;;;;;;9.30;5.90;;;11.20;49.70;;;;;;5077518;28;20466;-84
2023/04/20 03:31:45;;;;;;;10.70;7.30;;;11.20;49.80;;;;;;5079992;28;20633;-83
2023/04/20 03:34:12;;;;;;;8.50;6.50;;;11.20;49.90;;;;;;5072266;28;20492;-83
2023/04/20 03:36:41;;;;;;;8.47;6.67;;;11.20;50.10;;;;;;5065555;28;20968;-83
2023/04/20 03:39:08;;;;;;;7.63;6.30;;;11.30;50.20;;;;;;5080271;28;20888;-85
2023/04/20 03:41:35;;;;;;;10.97;6.53;;;11.30;50.00;;;;;;5063400;28;20456;-84
2023/04/20 03:44:02;;;;;;;8.50;5.17;;;11.30;50.20;;;;;;5089985;28;20472;-86
2023/04/20 03:46:30;;;;;;;9.17;5.33;;;11.20;50.20;;;;;;5069884;28;20559;-83
2023/04/20 03:48:57;;;;;;;10.57;5.63;;;11.20;50.50;;;;;;5071047;28;20455;-83
2023/04/20 03:51:24;;;;;;;6.73;4.80;;;11.20;50.60;;;;;;5087717;28;20937;-85
2023/04/20 03:53:52;;;;;;;6.13;5.37;;;11.20;50.60;;;;;;5068895;28;20474;-83
2023/04/20 03:56:20;;;;;;;7.87;5.20;;;11.10;50.60;;;;;;5068952;28;20459;-81
2023/04/20 03:58:48;;;;;;;7.57;5.27;;;11.20;50.30;;;;;;5085302;28;20471;-83
2023/04/20 04:01:22;;;;;;;7.93;5.80;;;11.20;50.20;;;;;;5107598;27;20471;-83
2023/04/20 04:03:50;;;;;;;8.10;6.67;;;11.10;50.60;;;;;;5084284;28;21125;-85
2023/04/20 04:06:17;;;;;;;13.33;8.17;;;11.20;50.60;;;;;;5091006;27;20965;-85
2023/04/20 04:08:44;;;;;;;10.17;8.03;;;11.20;50.50;;;;;;5108035;27;20534;-82
2023/04/20 04:11:13;;;;;;;7.80;6.63;;;11.30;50.60;;;;;;5065191;28;20447;-83
2023/04/20 04:13:40;;;;;;;7.70;6.60;;;11.30;50.60;;;;;;5072693;28;20513;-83
2023/04/20 04:16:09;;;;;;;9.57;6.10;;;11.30;50.80;;;;;;5068673;28;20443;-82
2023/04/20 04:18:36;;;;;;;9.60;5.10;;;11.30;50.60;;;;;;5084573;28;20451;-82
2023/04/20 04:21:09;;;;;;;12.70;5.80;;;11.30;50.80;;;;;;5089627;28;20475;-82
2023/04/20 04:23:37;;;;;;;10.63;5.60;;;11.30;50.60;;;;;;5081228;28;21042;-84
2023/04/20 04:26:13;;;;;;;9.77;6.30;;;11.20;51.00;;;;;;5076315;28;20500;-85
2023/04/20 04:28:44;;;;;;;7.10;5.97;;;11.30;50.90;;;;;;5086718;27;20442;-83
2023/04/20 04:31:17;;;;;;;9.13;5.80;;;11.30;50.70;;;;;;5079009;28;20510;-84
2023/04/20 04:33:45;;;;;;;8.40;6.00;;;11.30;50.90;;;;;;5047448;28;20701;-84
2023/04/20 04:36:15;;;;;;;10.63;6.70;;;11.30;50.70;;;;;;5084643;28;20452;-82
2023/04/20 04:38:43;;;;;;;8.43;7.13;;;11.30;50.80;;;;;;5069797;28;20493;-83
2023/04/20 04:41:11;;;;;;;9.40;6.97;;;11.30;51.10;;;;;;5051702;28;20576;-84
2023/04/20 04:43:40;;;;;;;17.90;10.53;;;11.40;51.30;;;;;;5047858;28;20502;-85
2023/04/20 04:46:16;;;;;;;23.73;15.87;;;11.40;51.10;;;;;;5080664;27;20519;-85
2023/04/20 04:48:45;;;;;;;18.97;12.80;;;11.40;51.10;;;;;;5081721;28;20500;-84
2023/04/20 04:51:12;;;;;;;14.67;10.40;;;11.40;50.90;;;;;;5058386;28;20471;-84
2023/04/20 04:53:43;;;;;;;12.10;8.43;;;11.50;50.80;;;;;;5073007;28;20471;-85
2023/04/20 04:56:12;;;;;;;9.73;8.63;;;11.50;50.80;;;;;;5070222;28;20994;-86
2023/04/20 04:58:40;;;;;;;15.50;9.37;;;11.50;51.10;;;;;;5103767;27;20491;-85
2023/04/20 05:01:07;;;;;;;10.23;8.33;;;11.50;50.90;;;;;;5104712;27;20524;-85
2023/04/20 05:03:34;;;;;;;13.63;8.70;;;11.40;50.80;;;;;;5070626;28;21462;-84
2023/04/20 05:06:01;;;;;;;11.33;8.60;;;11.50;51.40;;;;;;5103951;27;20444;-86
2023/04/20 05:08:29;;;;;;;10.50;7.97;;;11.50;51.60;;;;;;5074704;27;20819;-85
2023/04/20 05:10:57;;;;;;;11.70;7.63;;;11.50;51.40;;;;;;5060423;28;20479;-84
2023/04/20 05:13:24;;;;;;;16.50;9.40;;;11.50;51.80;;;;;;5085796;28;20507;-84
2023/04/20 05:15:52;;;;;;;13.63;9.33;;;11.50;51.60;;;;;;5088971;28;21161;-82
2023/04/20 05:18:19;;;;;;;17.97;7.97;;;11.50;51.40;;;;;;5088841;28;20458;-84
2023/04/20 05:20:46;;;;;;;12.83;8.60;;;11.60;51.20;;;;;;5072874;28;20436;-83
2023/04/20 05:23:14;;;;;;;8.47;6.60;;;11.70;51.40;;;;;;5089737;28;20487;-83
2023/04/20 05:25:41;;;;;;;12.13;6.90;;;11.60;50.30;;;;;;5089271;28;20492;-84
2023/04/20 05:28:08;;;;;;;13.10;7.53;;;11.60;50.50;;;;;;5090151;27;20849;-83
2023/04/20 05:30:35;;;;;;;14.37;7.77;;;11.50;50.60;;;;;;5078524;28;22059;-84
2023/04/20 05:33:03;;;;;;;11.03;6.40;;;11.40;50.90;;;;;;5068698;28;20495;-83
2023/04/20 05:35:30;;;;;;;11.70;7.57;;;11.40;50.40;;;;;;5086529;28;20448;-84
2023/04/20 05:37:59;;;;;;;12.73;6.63;;;11.30;50.50;;;;;;5092283;28;20447;-83
2023/04/20 05:40:26;;;;;;;12.20;7.30;;;11.40;50.00;;;;;;5087812;28;20451;-84
2023/04/20 05:42:53;;;;;;;10.37;6.73;;;11.40;49.80;;;;;;5087612;28;20502;-85
2023/04/20 05:45:20;;;;;;;8.50;5.67;;;11.50;50.30;;;;;;5086761;28;20449;-82
2023/04/20 05:47:52;;;;;;;7.83;5.93;;;11.60;49.80;;;;;;5089688;27;20451;-82
2023/04/20 05:50:22;;;;;;;9.77;6.17;;;11.60;49.60;;;;;;5086566;28;20473;-84
2023/04/20 05:52:49;;;;;;;15.23;6.67;;;11.60;49.90;;;;;;5079535;28;20467;-84
2023/04/20 05:55:16;;;;;;;8.97;6.30;;;11.30;49.60;;;;;;5086055;28;21350;-84
2023/04/20 05:57:43;;;;;;;9.87;6.30;;;11.10;50.20;;;;;;5071471;28;20897;-84
2023/04/20 06:00:11;;;;;;;8.90;6.83;;;11.10;50.60;;;;;;5089711;28;20529;-83
2023/04/20 06:02:42;;;;;;;8.00;5.90;;;11.10;50.60;;;;;;5071149;28;20478;-84
2023/04/20 06:05:10;;;;;;;10.10;5.80;;;11.30;50.70;;;;;;5088457;28;20476;-84
2023/04/20 06:07:39;;;;;;;12.97;7.50;;;11.20;50.70;;;;;;5088338;28;20465;-83
2023/04/20 06:10:07;;;;;;;7.90;6.73;;;11.10;51.30;;;;;;5088247;28;20561;-84
2023/04/20 06:12:35;;;;;;;11.70;7.13;;;10.90;50.80;;;;;;5087898;28;21199;-85
2023/04/20 06:15:03;;;;;;;9.27;5.47;;;11.00;51.20;;;;;;5090541;28;20443;-83
2023/04/20 06:17:30;;;;;;;6.70;5.50;;;11.20;51.10;;;;;;5086311;28;20546;-84
2023/04/20 06:19:57;;;;;;;7.70;6.20;;;11.40;50.60;;;;;;5087939;28;20987;-83
2023/04/20 06:22:24;;;;;;;8.17;6.33;;;11.60;50.70;;;;;;5088967;28;20498;-84
2023/04/20 06:24:53;;;;;;;8.63;6.13;;;11.70;49.90;;;;;;5088894;28;20447;-83
2023/04/20 06:27:20;;;;;;;10.87;6.90;;;11.80;49.50;;;;;;5085652;28;20448;-83
2023/04/20 06:29:47;;;;;;;12.97;9.70;;;11.80;49.20;;;;;;5090005;28;21004;-84
2023/04/20 06:32:14;;;;;;;9.23;7.17;;;11.50;49.80;;;;;;5079044;28;20461;-84
2023/04/20 06:34:41;;;;;;;10.73;6.90;;;11.40;49.80;;;;;;5087448;28;20456;-84
2023/04/20 06:37:08;;;;;;;12.90;7.13;;;11.30;50.10;;;;;;5069638;28;20544;-84
2023/04/20 06:39:35;;;;;;;8.10;6.70;;;11.30;50.20;;;;;;5087390;28;20466;-84
2023/04/20 06:42:03;;;;;;;6.37;5.60;;;11.20;50.00;;;;;;5087084;28;20446;-82
2023/04/20 06:44:31;;;;;;;11.73;7.87;;;11.30;50.30;;;;;;5086588;28;20439;-84
2023/04/20 06:46:58;;;;;;;12.37;7.70;;;11.40;50.40;;;;;;5086241;28;20446;-84
2023/04/20 06:49:25;;;;;;;9.23;6.37;;;11.60;50.00;;;;;;5070648;28;20451;-84
2023/04/20 06:51:52;;;;;;;14.40;7.87;;;11.50;50.00;;;;;;5087298;28;20464;-85
2023/04/20 06:54:19;;;;;;;9.17;7.40;;;11.40;49.90;;;;;;5059436;28;20701;-84
2023/04/20 06:56:46;;;;;;;14.27;8.33;;;11.50;50.20;;;;;;5087988;28;20444;-83
2023/04/20 06:59:17;;;;;;;11.60;8.37;;;11.70;50.20;;;;;;5085744;28;20467;-84
2023/04/20 07:01:44;;;;;;;11.10;7.40;;;11.90;50.00;;;;;;5089218;28;20468;-84
2023/04/20 07:04:11;;;;;;;9.03;7.20;;;12.10;49.30;;;;;;5074121;28;20781;-83
2023/04/20 07:06:38;;;;;;;10.23;7.60;;;11.90;49.30;;;;;;5060017;28;21797;-84
2023/04/20 07:09:07;;;;;;;11.47;6.70;;;11.90;49.90;;;;;;5084163;28;20882;-84
2023/04/20 07:11:34;;;;;;;11.93;7.70;;;12.10;49.50;;;;;;5085475;28;21183;-84
2023/04/20 07:14:01;;;;;;;11.47;7.70;;;12.00;49.00;;;;;;5090188;28;20482;-84
2023/04/20 07:16:29;;;;;;;10.70;7.67;;;11.90;49.80;;;;;;5067756;28;20644;-85
2023/04/20 07:18:56;;;;;;;10.10;7.77;;;11.90;49.70;;;;;;5067006;28;20452;-85
2023/04/20 07:21:23;;;;;;;9.67;8.07;;;11.80;49.40;;;;;;5084521;28;20437;-84
2023/04/20 07:23:50;;;;;;;11.73;8.70;;;11.80;49.70;;;;;;5090340;28;20748;-84
2023/04/20 07:26:18;;;;;;;11.77;8.33;;;12.00;49.30;;;;;;5051251;28;20435;-84
2023/04/20 07:28:45;;;;;;;10.53;7.17;;;12.10;49.70;;;;;;5087936;28;20438;-83
2023/04/20 07:31:12;;;;;;;8.93;7.27;;;12.30;49.40;;;;;;5069737;28;20521;-84
2023/04/20 07:33:40;;;;;;;16.83;9.97;;;12.30;48.50;;;;;;5072047;28;20570;-84
2023/04/20 07:36:08;;;;;;;10.43;7.50;;;12.20;48.80;;;;;;5072255;28;20451;-84
2023/04/20 07:38:35;;;;;;;8.53;6.40;;;11.90;49.00;;;;;;5093606;28;20537;-85
2023/04/20 07:41:02;;;;;;;11.90;9.40;;;11.90;49.70;;;;;;5094578;28;20626;-84
2023/04/20 07:43:29;;;;;;;8.53;7.30;;;11.90;49.00;;;;;;5090643;28;20835;-84
2023/04/20 07:45:56;;;;;;;15.07;7.70;;;12.20;49.50;;;;;;5077144;28;20471;-83
2023/04/20 07:48:23;;;;;;;8.30;7.20;;;12.30;48.80;;;;;;5081519;28;20460;-83
2023/04/20 07:50:52;;;;;;;10.37;7.90;;;12.40;48.30;;;;;;5090000;28;20467;-82
2023/04/20 07:53:19;;;;;;;9.77;6.50;;;12.20;48.90;;;;;;5089928;28;20489;-84
2023/04/20 07:55:46;;;;;;;11.70;7.97;;;12.20;49.10;;;;;;5092959;28;20451;-84
2023/04/20 07:58:15;;;;;;;9.33;7.50;;;12.50;48.80;;;;;;5090032;27;20446;-85
2023/04/20 08:00:42;;;;;;;8.90;7.00;;;12.70;48.40;;;;;;5088639;28;20605;-84
2023/04/20 08:03:09;;;;;;;9.10;7.37;;;12.90;48.10;;;;;;5093887;28;20820;-84
2023/04/20 08:05:37;;;;;;;9.70;7.10;;;13.00;47.80;;;;;;5090610;28;20452;-85
2023/04/20 08:08:06;;;;;;;7.90;7.03;;;13.10;47.30;;;;;;5093975;28;20965;-84
2023/04/20 08:10:33;;;;;;;9.47;6.80;;;12.90;47.70;;;;;;5089797;28;20475;-85
2023/04/20 08:13:00;;;;;;;8.90;6.63;;;13.00;48.10;;;;;;5075322;28;21040;-83
2023/04/20 08:15:27;;;;;;;9.50;6.50;;;13.30;47.60;;;;;;5091830;27;20470;-85
2023/04/20 08:17:54;;;;;;;9.43;6.40;;;13.20;47.70;;;;;;5091336;28;20535;-83
2023/04/20 08:20:21;;;;;;;8.23;7.00;;;13.10;47.00;;;;;;5091097;28;20833;-84
2023/04/20 08:22:49;;;;;;;7.70;6.60;;;12.90;47.30;;;;;;5109175;27;20963;-84
2023/04/20 08:25:18;;;;;;;8.10;6.37;;;12.80;47.60;;;;;;5092622;28;20816;-82
2023/04/20 08:27:45;;;;;;;7.80;6.20;;;13.00;47.80;;;;;;5060240;27;20952;-83
2023/04/20 08:30:12;;;;;;;8.10;6.30;;;13.30;47.20;;;;;;5094648;28;20501;-84
2023/04/20 08:32:39;;;;;;;8.33;6.50;;;13.40;46.80;;;;;;5090179;28;20466;-84
2023/04/20 08:35:07;;;;;;;11.77;7.40;;;13.50;46.30;;;;;;5091112;27;20538;-84
2023/04/20 08:37:34;;;;;;;12.17;6.73;;;13.60;46.70;;;;;;5092966;27;20447;-84
2023/04/20 08:40:01;;;;;;;11.57;7.50;;;13.80;45.70;;;;;;5092647;28;20451;-84
2023/04/20 08:42:31;;;;;;;8.50;6.80;;;13.80;45.60;;;;;;5089404;28;20459;-85
2023/04/20 08:44:58;;;;;;;7.63;6.07;;;13.90;46.00;;;;;;5090261;27;20569;-86
2023/04/20 08:47:27;;;;;;;10.07;6.70;;;14.00;45.50;;;;;;5090432;27;20439;-86
2023/04/20 08:49:55;;;;;;;8.93;6.90;;;13.90;45.10;;;;;;5071359;28;21028;-85
2023/04/20 08:52:22;;;;;;;7.37;6.13;;;14.00;45.00;;;;;;5072330;28;20485;-83
2023/04/20 08:54:49;;;;;;;6.87;6.17;;;13.70;45.40;;;;;;5092309;28;20476;-84
2023/04/20 08:57:16;;;;;;;8.73;6.47;;;13.70;45.30;;;;;;5092854;28;20917;-83
2023/04/20 08:59:44;;;;;;;10.63;6.80;;;13.90;45.40;;;;;;5089042;27;20451;-85
2023/04/20 09:02:13;;;;;;;13.33;6.20;;;14.20;44.90;;;;;;5092189;27;20867;-85
2023/04/20 09:04:40;;;;;;;7.80;6.40;;;14.40;44.10;;;;;;5106632;27;20455;-85
2023/04/20 09:07:16;;;;;;;8.17;6.83;;;14.40;43.50;;;;;;5074966;28;20546;-85
2023/04/20 09:09:54;;;;;;;7.93;6.20;;;14.40;44.50;;;;;;5088412;27;20441;-85
2023/04/20 09:12:21;;;;;;;12.10;6.67;;;14.60;44.20;;;;;;5085817;28;20526;-84
2023/04/20 09:14:50;;;;;;;8.00;6.47;;;14.70;44.20;;;;;;5091767;27;20446;-87
2023/04/20 09:17:18;;;;;;;10.87;6.87;;;14.40;44.20;;;;;;5075023;28;20791;-86
2023/04/20 09:19:52;;;;;;;9.50;7.47;;;14.20;44.40;;;;;;5092687;27;20518;-83
2023/04/20 09:22:29;;;;;;;9.80;6.47;;;14.40;44.70;;;;;;5092700;27;20888;-84
2023/04/20 09:24:57;;;;;;;7.43;5.57;;;14.70;44.00;;;;;;5093431;27;20545;-84
2023/04/20 09:27:25;;;;;;;11.73;5.97;;;14.70;43.70;;;;;;5103549;27;20462;-83
2023/04/20 09:29:58;;;;;;;7.83;6.10;;;14.70;44.50;;;;;;5091410;28;20543;-84
2023/04/20 09:32:27;;;;;;;8.43;6.40;;;14.90;43.40;;;;;;5091270;27;21090;-83
2023/04/20 09:34:55;;;;;;;9.17;6.30;;;15.20;43.20;;;;;;5091674;28;20450;-85
2023/04/20 09:37:22;;;;;;;8.87;5.90;;;15.30;41.80;;;;;;5058395;28;20451;-85
2023/04/20 09:39:50;;;;;;;8.20;6.00;;;15.30;41.30;;;;;;5092922;27;20952;-85
2023/04/20 09:42:18;;;;;;;7.50;6.20;;;15.20;41.70;;;;;;5072343;28;20563;-81
2023/04/20 09:44:45;;;;;;;7.30;6.30;;;15.30;41.90;;;;;;5090114;28;20457;-85
2023/04/20 09:47:18;;;;;;;11.13;5.90;;;15.40;41.80;;;;;;5093122;28;20577;-84
2023/04/20 09:49:46;;;;;;;8.60;6.30;;;15.10;41.30;;;;;;5090617;28;20574;-84
2023/04/20 09:52:17;;;;;;;8.33;6.43;;;15.00;41.10;;;;;;5093537;28;20467;-83
2023/04/20 09:54:44;;;;;;;6.57;5.57;;;15.20;40.90;;;;;;5088029;28;20448;-83
2023/04/20 09:57:13;;;;;;;7.30;5.97;;;15.40;40.80;;;;;;5092873;28;20474;-84
2023/04/20 09:59:43;;;;;;;6.60;5.17;;;15.50;41.00;;;;;;5089809;28;20446;-84
2023/04/20 10:02:11;;;;;;;8.07;5.33;;;15.60;40.70;;;;;;5078416;28;20553;-84
2023/04/20 10:04:54;;;;;;;9.97;6.00;;;16.00;41.20;;;;;;5071225;28;20450;-85
2023/04/20 10:07:26;;;;;;;6.53;5.70;;;16.30;38.60;;;;;;5088466;28;20483;-82
2023/04/20 10:10:12;;;;;;;11.37;5.97;;;15.80;39.70;;;;;;5079869;28;21000;-85
2023/04/20 10:12:50;;;;;;;7.13;4.80;;;15.80;39.90;;;;;;5069321;28;20490;-85
2023/04/20 10:15:17;;;;;;;8.20;6.50;;;15.80;39.60;;;;;;5088391;27;20621;-84
2023/04/20 10:17:44;;;;;;;11.80;5.70;;;15.90;40.40;;;;;;5061274;27;20905;-85
2023/04/20 10:20:21;;;;;;;8.57;5.50;;;16.10;41.00;;;;;;5070493;28;20904;-85
2023/04/20 10:22:49;;;;;;;7.17;5.73;;;16.20;38.90;;;;;;5071226;28;20551;-84
2023/04/20 10:25:19;;;;;;;7.77;5.13;;;16.20;39.40;;;;;;5089894;28;20503;-85
2023/04/20 10:27:54;;;;;;;8.67;5.70;;;16.30;40.50;;;;;;5089251;28;20486;-85
2023/04/20 10:30:22;;;;;;;6.97;5.30;;;16.30;39.40;;;;;;5087581;28;20968;-83
2023/04/20 10:32:49;;;;;;;9.70;5.90;;;16.30;40.30;;;;;;5078534;28;20851;-83
2023/04/20 10:35:16;;;;;;;7.03;6.33;;;16.30;39.00;;;;;;5102138;27;20999;-85
2023/04/20 10:37:52;;;;;;;6.33;5.70;;;15.90;39.30;;;;;;5103613;27;20455;-85
2023/04/20 10:40:26;;;;;;;9.47;6.63;;;15.90;39.50;;;;;;5088380;28;21012;-85
2023/04/20 10:42:53;;;;;;;7.77;6.03;;;15.80;40.20;;;;;;5089821;28;20458;-83
2023/04/20 10:45:20;;;;;;;8.10;6.50;;;16.00;40.50;;;;;;5087158;28;20442;-84
2023/04/20 10:47:47;;;;;;;5.70;4.93;;;16.30;39.60;;;;;;5084743;28;20452;-85
2023/04/20 10:50:16;;;;;;;6.40;5.80;;;16.40;38.50;;;;;;5091807;28;20460;-86
2023/04/20 10:52:44;;;;;;;9.10;5.37;;;16.10;38.90;;;;;;5072621;28;20502;-84
2023/04/20 10:55:21;;;;;;;6.17;5.40;;;16.00;38.80;;;;;;5090669;28;20537;-85
2023/04/20 10:57:48;;;;;;;7.50;5.80;;;15.80;39.10;;;;;;5089677;28;20446;-84
2023/04/20 11:00:17;;;;;;;7.43;5.20;;;15.60;40.40;;;;;;5089401;28;20505;-85
2023/04/20 11:02:49;;;;;;;7.37;5.10;;;15.80;39.90;;;;;;5089775;28;20455;-85
2023/04/20 11:05:17;;;;;;;8.33;5.10;;;15.80;39.50;;;;;;5094643;28;20447;-83
2023/04/20 11:07:50;;;;;;;6.03;5.00;;;15.80;40.50;;;;;;5093874;28;20443;-84
2023/04/20 11:10:17;;;;;;;13.20;8.17;;;15.90;39.30;;;;;;5098969;28;20474;-85
2023/04/20 11:12:46;;;;;;;17.10;9.07;;;15.90;39.00;;;;;;5096663;27;20474;-84
2023/04/20 11:15:15;;;;;;;7.23;5.73;;;15.80;40.80;;;;;;5097275;28;20449;-85
2023/04/20 11:17:42;;;;;;;9.03;5.87;;;15.70;40.50;;;;;;5094901;27;20534;-84
2023/04/20 11:20:12;;;;;;;5.90;4.50;;;15.80;40.00;;;;;;5094294;28;20479;-84
2023/04/20 11:22:39;;;;;;;5.80;5.00;;;15.50;37.70;;;;;;5065782;27;20450;-83
2023/04/20 11:25:08;;;;;;;6.33;3.90;;;15.50;38.10;;;;;;5059133;28;20428;-84
2023/04/20 11:27:35;;;;;;;5.23;4.20;;;15.80;38.80;;;;;;5091256;27;20454;-85
2023/04/20 11:30:06;;;;;;;6.50;4.53;;;15.70;38.30;;;;;;5092139;27;20558;-85
2023/04/20 11:32:36;;;;;;;6.60;4.60;;;16.00;38.70;;;;;;5074536;28;20566;-85
2023/04/20 11:35:06;;;;;;;4.53;4.03;;;16.20;37.00;;;;;;5092724;28;20448;-85
2023/04/20 11:37:34;;;;;;;7.87;4.63;;;16.20;36.80;;;;;;5094126;27;20969;-83
2023/04/20 11:40:03;;;;;;;6.27;4.53;;;16.30;36.60;;;;;;5095292;27;20504;-84
2023/04/20 11:42:30;;;;;;;4.77;4.27;;;16.10;37.00;;;;;;5074260;28;20471;-84
2023/04/20 11:44:59;;;;;;;5.20;4.70;;;16.10;36.30;;;;;;5097393;27;20495;-84
2023/04/20 11:47:27;;;;;;;5.10;3.50;;;16.10;36.70;;;;;;5078252;28;20439;-83
2023/04/20 11:49:54;;;;;;;5.10;4.00;;;15.80;36.50;;;;;;5074804;28;20531;-84
2023/04/20 11:52:21;;;;;;;5.20;4.03;;;15.60;36.00;;;;;;5094371;28;21184;-84
2023/04/20 11:54:48;;;;;;;8.03;3.37;;;15.50;36.20;;;;;;5095767;27;20443;-84
2023/04/20 11:57:16;;;;;;;3.97;3.60;;;15.50;36.00;;;;;;5075404;28;20466;-83
2023/04/20 11:59:46;;;;;;;7.20;3.90;;;15.60;35.10;;;;;;5089627;28;20454;-84
2023/04/20 12:02:14;;;;;;;3.90;3.60;;;15.40;35.10;;;;;;5080842;28;20437;-83
2023/04/20 12:04:42;;;;;;;4.23;3.63;;;15.40;36.20;;;;;;5094746;28;20454;-84
2023/04/20 12:07:09;;;;;;;4.40;3.60;;;15.70;36.40;;;;;;5077385;28;20546;-85
2023/04/20 12:09:37;;;;;;;5.83;4.57;;;15.60;35.10;;;;;;5093880;27;20442;-84
2023/04/20 12:12:05;;;;;;;4.20;3.73;;;15.80;35.70;;;;;;5093430;28;20548;-85
2023/04/20 12:14:33;;;;;;;4.53;3.63;;;16.00;34.90;;;;;;5084341;28;20471;-83
2023/04/20 12:17:01;;;;;;;5.10;3.53;;;15.80;34.60;;;;;;5092534;28;20453;-84
2023/04/20 12:19:28;;;;;;;4.07;3.77;;;15.60;35.40;;;;;;5090895;27;20534;-83
2023/04/20 12:21:56;;;;;;;4.83;3.93;;;15.50;34.80;;;;;;5077012;28;20475;-83
2023/04/20 12:24:24;;;;;;;5.07;3.40;;;15.40;35.40;;;;;;5091015;27;20500;-83
2023/04/20 12:26:51;;;;;;;4.03;3.63;;;15.20;35.90;;;;;;5093052;27;20704;-83
2023/04/20 12:29:18;;;;;;;4.47;3.70;;;15.00;36.80;;;;;;5090836;28;21016;-83
2023/04/20 12:31:45;;;;;;;4.60;4.20;;;14.90;37.60;;;;;;5086861;28;21580;-84
2023/04/20 12:34:12;;;;;;;4.30;3.83;;;15.10;38.10;;;;;;5089837;27;20583;-83
2023/04/20 12:36:39;;;;;;;4.73;3.80;;;15.40;38.10;;;;;;5090386;27;20448;-83
2023/04/20 12:39:07;;;;;;;4.40;4.00;;;15.70;36.90;;;;;;5089587;27;20439;-83
2023/04/20 12:41:35;;;;;;;5.60;4.10;;;15.70;35.60;;;;;;5103982;27;21381;-84
2023/04/20 12:44:02;;;;;;;5.87;4.50;;;15.70;35.90;;;;;;5080818;28;20474;-84
2023/04/20 12:46:29;;;;;;;6.83;4.17;;;15.80;35.40;;;;;;5089868;28;20478;-83
2023/04/20 12:48:56;;;;;;;4.13;3.73;;;15.60;35.60;;;;;;5089551;28;20554;-83
2023/04/20 12:51:23;;;;;;;4.83;4.37;;;15.60;35.10;;;;;;5089016;27;20442;-83